Ward, Louisiana
Current Conditions -  °F | °C
As of 9:15 PM on Saturday 20 Dec 2014 (Local Time) from KACP Reporting Station
Clear Clear  
Wind Chill: 42°   Ceiling: Unl
Heat Index: 45°   Visibility: 10mi
Dew Point: 43°   Wind: 5mph
Humidity: 94%   Direction: 330°NNW
Pressure: 30.19"   Gusts: NA
Location:  30.8164°N, 92.6914°W
Report Text: KACP 210315Z AUTO 33004KT 10SM CLR 07/06 A3019 RMK AO2 T00710062
Loading
Personal Weather Stations






























Interactive Weather Map New forecast layout! Learn more

10-Day Weather Forecast

Advertisements
Track Severe Weather on mobile